createdAt,value
2018-12-30T00:00:30.076Z,22.35
2018-12-30T00:02:56.648Z,24.40
2018-12-30T00:05:23.368Z,23.20
2018-12-30T00:07:49.624Z,23.65
2018-12-30T00:10:16.305Z,24.72
2018-12-30T00:12:42.591Z,27.58
2018-12-30T00:15:09.158Z,26.25
2018-12-30T00:17:35.655Z,26.02
2018-12-30T00:20:02.104Z,24.07
2018-12-30T00:22:28.389Z,26.45
2018-12-30T00:24:54.763Z,25.82
2018-12-30T00:27:21.213Z,24.55
2018-12-30T00:29:47.525Z,25.55
2018-12-30T00:32:13.883Z,25.52
2018-12-30T00:34:40.245Z,27.40
2018-12-30T00:37:06.569Z,24.75
2018-12-30T00:39:32.888Z,22.58
2018-12-30T00:41:59.238Z,21.27
2018-12-30T00:44:25.553Z,23.62
2018-12-30T00:46:51.939Z,23.07
2018-12-30T00:49:18.252Z,21.23
2018-12-30T00:51:44.744Z,22.10
2018-12-30T00:54:11.123Z,23.62
2018-12-30T00:56:37.500Z,22.98
2018-12-30T00:59:03.761Z,24.60
2018-12-30T01:01:30.070Z,22.07
2018-12-30T01:03:56.440Z,22.77
2018-12-30T01:06:22.695Z,23.50
2018-12-30T01:08:49.394Z,20.00
2018-12-30T01:11:15.678Z,23.75
2018-12-30T01:13:41.962Z,22.45
2018-12-30T01:16:08.225Z,23.85
2018-12-30T01:18:34.603Z,22.87
2018-12-30T01:21:00.895Z,23.15
2018-12-30T01:23:27.160Z,19.05
2018-12-30T01:25:53.841Z,21.45
2018-12-30T01:28:20.198Z,21.52
2018-12-30T01:30:46.504Z,22.80
2018-12-30T01:33:12.801Z,20.57
2018-12-30T01:35:39.107Z,22.37
2018-12-30T01:38:05.403Z,20.35
2018-12-30T01:40:31.705Z,21.40
2018-12-30T01:42:58.016Z,20.95
2018-12-30T01:45:24.440Z,20.30
2018-12-30T01:47:50.697Z,30.72
2018-12-30T01:50:17.020Z,26.10
2018-12-30T01:52:43.315Z,20.30
2018-12-30T01:55:09.621Z,19.10
2018-12-30T01:57:36.212Z,20.50
2018-12-30T02:00:04.101Z,19.80
2018-12-30T02:02:30.364Z,22.65
2018-12-30T02:04:56.645Z,36.25
2018-12-30T02:07:22.929Z,56.60
2018-12-30T02:09:49.193Z,42.65
2018-12-30T02:12:15.597Z,20.62
2018-12-30T02:14:41.871Z,22.00
2018-12-30T02:17:08.168Z,20.02
2018-12-30T02:19:34.440Z,22.60
2018-12-30T02:22:00.804Z,18.87
2018-12-30T02:24:27.178Z,27.60
2018-12-30T02:26:53.460Z,23.07
2018-12-30T02:29:19.756Z,19.80
2018-12-30T02:31:46.108Z,20.40
2018-12-30T02:34:12.472Z,19.98
2018-12-30T02:36:38.764Z,19.55
2018-12-30T02:39:05.113Z,21.42
2018-12-30T02:41:31.515Z,20.27
2018-12-30T02:43:58.010Z,20.68
2018-12-30T02:46:24.244Z,19.98
2018-12-30T02:48:50.568Z,20.60
2018-12-30T02:51:16.953Z,18.52
2018-12-30T02:53:43.314Z,19.05
2018-12-30T02:56:09.608Z,18.55
2018-12-30T02:58:36.096Z,17.95
2018-12-30T03:01:02.344Z,17.98
2018-12-30T03:03:28.745Z,19.55
2018-12-30T03:05:55.004Z,18.73
2018-12-30T03:08:21.298Z,18.02
2018-12-30T03:10:47.714Z,18.98
2018-12-30T03:13:14.108Z,21.48
2018-12-30T03:15:40.357Z,18.50
2018-12-30T03:18:06.626Z,20.27
2018-12-30T03:20:33.018Z,18.85
2018-12-30T03:22:59.271Z,18.40
2018-12-30T03:25:25.653Z,18.23
2018-12-30T03:27:51.925Z,18.50
2018-12-30T03:30:18.283Z,17.57
2018-12-30T03:32:44.570Z,18.35
2018-12-30T03:35:10.952Z,19.37
2018-12-30T03:37:37.348Z,19.30
2018-12-30T03:40:06.224Z,19.70
2018-12-30T03:42:32.600Z,19.62
2018-12-30T03:44:58.985Z,19.02
2018-12-30T03:47:25.235Z,18.40
2018-12-30T03:49:51.542Z,20.30
2018-12-30T03:52:17.829Z,19.30
2018-12-30T03:54:44.113Z,19.10
2018-12-30T03:57:10.483Z,17.25
2018-12-30T03:59:36.768Z,17.45
2018-12-30T04:02:03.176Z,18.80
2018-12-30T04:04:29.540Z,19.30
2018-12-30T04:06:55.904Z,18.25
2018-12-30T04:09:22.185Z,19.00
2018-12-30T04:11:48.566Z,19.45
2018-12-30T04:14:15.056Z,19.07
2018-12-30T04:16:41.341Z,19.90
2018-12-30T04:19:07.597Z,19.35
2018-12-30T04:21:33.888Z,17.48
2018-12-30T04:24:00.249Z,18.23
2018-12-30T04:26:26.501Z,17.90
2018-12-30T04:28:52.793Z,17.35
2018-12-30T04:31:19.070Z,17.90
2018-12-30T04:33:45.473Z,16.97
2018-12-30T04:36:31.602Z,17.73
2018-12-30T04:38:57.886Z,17.57
2018-12-30T04:41:24.122Z,17.02
2018-12-30T04:43:50.403Z,15.72
2018-12-30T04:46:16.795Z,16.97
2018-12-30T04:48:43.053Z,18.62
2018-12-30T04:51:09.475Z,16.12
2018-12-30T04:53:35.752Z,15.55
2018-12-30T04:56:02.000Z,16.50
2018-12-30T04:58:28.282Z,18.25
2018-12-30T05:00:54.671Z,16.37
2018-12-30T05:03:20.907Z,17.77
2018-12-30T05:05:47.199Z,17.57
2018-12-30T05:08:13.571Z,16.30
2018-12-30T05:10:39.880Z,16.87
2018-12-30T05:13:06.362Z,16.95
2018-12-30T05:15:32.738Z,17.25
2018-12-30T05:17:58.985Z,17.37
2018-12-30T05:20:25.568Z,15.48
2018-12-30T05:22:51.960Z,16.35
2018-12-30T05:25:18.233Z,15.10
2018-12-30T05:27:44.631Z,15.60
2018-12-30T05:30:11.037Z,15.43
2018-12-30T05:32:37.282Z,16.30
2018-12-30T05:35:03.992Z,15.98
2018-12-30T05:37:30.369Z,16.77
2018-12-30T05:39:56.636Z,15.78
2018-12-30T05:42:22.934Z,16.30
2018-12-30T05:44:49.186Z,16.85
2018-12-30T05:47:15.471Z,16.40
2018-12-30T05:49:41.801Z,15.93
2018-12-30T05:52:08.073Z,16.70
2018-12-30T05:54:34.457Z,17.07
2018-12-30T05:57:00.744Z,16.40
2018-12-30T05:59:27.030Z,19.70
2018-12-30T06:01:53.418Z,15.90
2018-12-30T06:04:19.720Z,16.82
2018-12-30T06:06:46.085Z,19.32
2018-12-30T06:09:12.465Z,17.45
2018-12-30T06:11:38.851Z,18.85
2018-12-30T06:14:05.229Z,15.78
2018-12-30T06:16:31.526Z,17.60
2018-12-30T06:18:57.792Z,15.20
2018-12-30T06:21:24.069Z,12.58
2018-12-30T06:23:50.341Z,10.20
2018-12-30T06:26:16.628Z,8.73
2018-12-30T06:28:43.045Z,9.63
2018-12-30T06:31:09.333Z,7.85
2018-12-30T06:33:35.605Z,9.43
2018-12-30T06:36:01.907Z,7.65
2018-12-30T06:38:28.207Z,7.55
2018-12-30T06:40:54.476Z,8.60
2018-12-30T06:43:20.896Z,8.13
2018-12-30T06:45:47.169Z,9.60
2018-12-30T06:48:13.544Z,8.43
2018-12-30T06:50:39.977Z,7.83
2018-12-30T06:53:06.349Z,9.53
2018-12-30T06:55:32.700Z,14.63
2018-12-30T06:57:58.993Z,9.45
2018-12-30T07:00:25.490Z,7.85
2018-12-30T07:02:51.788Z,7.58
2018-12-30T07:05:18.089Z,9.23
2018-12-30T07:07:44.499Z,8.30
2018-12-30T07:10:10.755Z,8.50
2018-12-30T07:12:37.048Z,8.15
2018-12-30T07:15:04.525Z,8.55
2018-12-30T07:17:30.854Z,8.55
2018-12-30T07:19:57.254Z,8.00
2018-12-30T07:22:23.528Z,8.38
2018-12-30T07:24:49.828Z,8.58
2018-12-30T07:27:16.100Z,8.78
2018-12-30T07:29:42.418Z,10.25
2018-12-30T07:32:08.751Z,10.65
2018-12-30T07:34:35.045Z,10.40
2018-12-30T07:37:01.316Z,10.35
2018-12-30T07:39:27.629Z,9.60
2018-12-30T07:41:53.977Z,10.18
2018-12-30T07:44:20.438Z,10.50
2018-12-30T07:46:46.756Z,9.63
2018-12-30T07:49:13.076Z,10.55
2018-12-30T07:51:39.476Z,10.18
2018-12-30T07:54:05.794Z,10.55
2018-12-30T07:56:32.227Z,10.90
2018-12-30T07:58:58.522Z,13.10
2018-12-30T08:01:24.911Z,10.65
2018-12-30T08:03:51.297Z,11.57
2018-12-30T08:06:17.577Z,19.23
2018-12-30T08:08:43.941Z,15.23
2018-12-30T08:11:10.227Z,14.05
2018-12-30T08:13:36.494Z,15.53
2018-12-30T08:16:02.773Z,13.72
2018-12-30T08:18:29.132Z,12.30
2018-12-30T08:20:55.613Z,10.90
2018-12-30T08:23:23.761Z,12.35
2018-12-30T08:25:50.119Z,11.53
2018-12-30T08:28:16.501Z,10.45
2018-12-30T08:30:42.767Z,10.68
2018-12-30T08:33:09.102Z,15.98
2018-12-30T08:35:35.445Z,12.65
2018-12-30T08:38:01.788Z,12.35
2018-12-30T08:40:28.004Z,13.30
2018-12-30T08:42:54.397Z,11.03
2018-12-30T08:45:20.768Z,10.18
2018-12-30T08:47:47.071Z,12.03
2018-12-30T08:50:13.341Z,11.40
2018-12-30T08:52:39.631Z,9.60
2018-12-30T08:55:06.038Z,10.08
2018-12-30T08:57:32.403Z,10.35
2018-12-30T08:59:58.689Z,8.60
2018-12-30T09:02:24.962Z,8.25
2018-12-30T09:04:51.316Z,9.95
2018-12-30T09:07:17.708Z,10.70
2018-12-30T09:09:43.980Z,8.00
2018-12-30T09:12:10.232Z,9.23
2018-12-30T09:14:36.524Z,9.03
2018-12-30T09:17:03.010Z,9.33
2018-12-30T09:19:29.378Z,8.18
2018-12-30T09:21:55.730Z,8.13
2018-12-30T09:24:21.971Z,7.45
2018-12-30T09:26:48.272Z,7.12
2018-12-30T09:29:14.540Z,8.05
2018-12-30T09:31:40.949Z,7.65
2018-12-30T09:34:07.336Z,7.80
2018-12-30T09:36:33.589Z,6.42
2018-12-30T09:38:59.995Z,8.85
2018-12-30T09:41:26.376Z,7.30
2018-12-30T09:43:52.692Z,8.70
2018-12-30T09:46:19.068Z,7.35
2018-12-30T09:48:45.491Z,6.20
2018-12-30T09:51:11.777Z,6.97
2018-12-30T09:53:44.938Z,7.67
2018-12-30T09:56:06.323Z,7.45
2018-12-30T09:58:32.614Z,6.40
2018-12-30T10:00:58.969Z,6.15
2018-12-30T10:03:25.257Z,6.28
2018-12-30T10:05:51.731Z,6.15
2018-12-30T10:08:18.020Z,7.28
2018-12-30T10:10:44.329Z,7.10
2018-12-30T10:13:10.619Z,10.30
2018-12-30T10:15:37.021Z,10.65
2018-12-30T10:18:03.389Z,11.63
2018-12-30T10:20:30.906Z,14.20
2018-12-30T10:22:58.863Z,12.73
2018-12-30T10:25:25.285Z,6.95
2018-12-30T10:27:51.631Z,6.78
2018-12-30T10:30:17.894Z,5.75
2018-12-30T10:32:44.268Z,7.00
2018-12-30T10:35:10.582Z,7.97
2018-12-30T10:37:36.925Z,5.50
2018-12-30T10:40:03.301Z,6.60
2018-12-30T10:42:29.695Z,8.03
2018-12-30T10:44:56.124Z,7.65
2018-12-30T10:47:22.524Z,7.55
2018-12-30T10:49:48.793Z,5.60
2018-12-30T10:52:15.138Z,7.83
2018-12-30T10:54:41.391Z,6.05
2018-12-30T10:57:07.716Z,5.17
2018-12-30T10:59:34.107Z,5.92
2018-12-30T11:02:00.470Z,4.97
2018-12-30T11:04:26.865Z,4.75
2018-12-30T11:06:53.233Z,6.70
2018-12-30T11:09:19.615Z,4.15
2018-12-30T11:11:46.128Z,4.60
2018-12-30T11:14:12.375Z,5.00
2018-12-30T11:16:38.645Z,4.85
2018-12-30T11:19:04.920Z,8.50
2018-12-30T11:21:31.275Z,5.55
2018-12-30T11:23:58.623Z,7.92
2018-12-30T11:26:24.992Z,5.65
2018-12-30T11:28:51.412Z,4.72
2018-12-30T11:31:17.807Z,4.95
2018-12-30T11:33:44.095Z,5.70
2018-12-30T11:36:10.487Z,6.10
2018-12-30T11:38:36.867Z,6.58
2018-12-30T11:41:03.380Z,9.45
2018-12-30T11:43:29.773Z,4.40
2018-12-30T11:45:56.013Z,6.37
2018-12-30T11:48:22.436Z,13.20
2018-12-30T11:50:48.747Z,4.28
2018-12-30T11:53:15.028Z,6.20
2018-12-30T11:55:41.321Z,5.03
2018-12-30T11:58:07.597Z,7.60
2018-12-30T12:00:33.986Z,5.65
2018-12-30T12:03:00.343Z,4.65
2018-12-30T12:05:26.698Z,4.30
2018-12-30T12:07:53.089Z,8.30
2018-12-30T12:10:19.464Z,4.85
2018-12-30T12:12:48.994Z,3.67
2018-12-30T12:15:14.108Z,2.85
2018-12-30T12:17:40.327Z,3.10
2018-12-30T12:20:06.818Z,3.72
2018-12-30T12:22:33.370Z,4.40
2018-12-30T12:24:59.632Z,3.90
2018-12-30T12:27:25.940Z,3.17
2018-12-30T12:29:52.309Z,2.08
2018-12-30T12:32:18.641Z,2.33
2018-12-30T12:34:44.942Z,2.50
2018-12-30T12:37:11.428Z,3.00
2018-12-30T12:39:37.708Z,2.40
2018-12-30T12:42:04.033Z,3.47
2018-12-30T12:44:30.434Z,4.17
2018-12-30T12:46:56.803Z,3.80
2018-12-30T12:49:23.092Z,3.35
2018-12-30T12:51:49.388Z,7.65
2018-12-30T12:54:15.666Z,4.95
2018-12-30T12:56:41.950Z,7.80
2018-12-30T12:59:08.320Z,9.93
2018-12-30T13:01:34.688Z,3.55
2018-12-30T13:04:00.972Z,2.77
2018-12-30T13:06:27.387Z,2.47
2018-12-30T13:08:53.684Z,2.83
2018-12-30T13:11:19.986Z,1.90
2018-12-30T13:13:46.474Z,1.67
2018-12-30T13:16:12.839Z,1.65
2018-12-30T13:18:39.128Z,3.83
2018-12-30T13:21:05.488Z,3.95
2018-12-30T13:23:31.759Z,4.03
2018-12-30T13:25:58.102Z,2.72
2018-12-30T13:28:24.378Z,3.08
2018-12-30T13:30:50.708Z,2.52
2018-12-30T13:33:17.031Z,2.98
2018-12-30T13:35:43.744Z,2.15
2018-12-30T13:38:10.215Z,2.30
2018-12-30T13:40:36.613Z,2.42
2018-12-30T13:43:02.989Z,2.27
2018-12-30T13:45:29.243Z,2.90
2018-12-30T13:47:55.578Z,3.10
2018-12-30T13:50:21.844Z,3.62
2018-12-30T13:52:48.084Z,3.47
2018-12-30T13:55:14.430Z,3.92
2018-12-30T13:57:40.783Z,3.10
2018-12-30T14:00:08.384Z,3.70
2018-12-30T14:02:34.784Z,4.20
2018-12-30T14:05:01.184Z,4.50
2018-12-30T14:07:27.541Z,5.92
2018-12-30T14:09:53.945Z,4.50
2018-12-30T14:12:20.308Z,4.60
2018-12-30T14:14:46.696Z,4.85
2018-12-30T14:17:12.956Z,3.77
2018-12-30T14:19:39.234Z,3.58
2018-12-30T14:22:05.497Z,4.15
2018-12-30T14:24:31.787Z,3.90
2018-12-30T14:26:59.963Z,3.12
2018-12-30T14:29:26.176Z,4.92
2018-12-30T14:31:52.452Z,4.25
2018-12-30T14:34:18.838Z,4.50
2018-12-30T14:36:45.116Z,4.22
2018-12-30T14:39:11.388Z,4.58
2018-12-30T14:41:37.658Z,5.00
2018-12-30T14:44:04.052Z,4.30
2018-12-30T14:46:34.798Z,4.50
2018-12-30T14:48:58.400Z,5.55
2018-12-30T14:51:24.753Z,5.65
2018-12-30T14:53:51.005Z,4.95
2018-12-30T14:56:17.370Z,5.65
2018-12-30T14:58:43.773Z,5.12
2018-12-30T15:01:14.725Z,5.40
2018-12-30T15:03:38.234Z,5.10
2018-12-30T15:06:04.632Z,5.10
2018-12-30T15:08:30.926Z,5.90
2018-12-30T15:10:57.205Z,6.00
2018-12-30T15:13:23.617Z,5.15
2018-12-30T15:15:49.989Z,5.37
2018-12-30T15:18:16.281Z,6.30
2018-12-30T15:20:42.533Z,5.40
2018-12-30T15:23:08.804Z,5.35
2018-12-30T15:25:35.119Z,6.00
2018-12-30T15:28:01.384Z,5.85
2018-12-30T15:30:27.683Z,5.87
2018-12-30T15:32:54.164Z,6.12
2018-12-30T15:35:20.545Z,6.42
2018-12-30T15:37:46.941Z,5.35
2018-12-30T15:40:13.198Z,5.50
2018-12-30T15:42:39.513Z,5.35
2018-12-30T15:45:06.271Z,5.40
2018-12-30T15:47:32.585Z,5.17
2018-12-30T15:49:59.051Z,6.60
2018-12-30T15:52:25.368Z,5.30
2018-12-30T15:54:52.272Z,5.90
2018-12-30T15:57:18.628Z,6.03
2018-12-30T15:59:44.945Z,6.35
2018-12-30T16:02:11.328Z,6.00
2018-12-30T16:04:38.144Z,6.85
2018-12-30T16:07:04.480Z,6.05
2018-12-30T16:09:30.795Z,5.85
2018-12-30T16:11:57.120Z,6.10
2018-12-30T16:14:23.401Z,6.60
2018-12-30T16:16:51.556Z,5.90
2018-12-30T16:19:17.864Z,6.65
2018-12-30T16:21:44.230Z,6.92
2018-12-30T16:24:10.496Z,7.60
2018-12-30T16:26:36.788Z,7.97
2018-12-30T16:29:03.053Z,7.15
2018-12-30T16:31:29.488Z,7.50
2018-12-30T16:33:55.760Z,7.00
2018-12-30T16:36:22.050Z,7.00
2018-12-30T16:38:48.397Z,5.72
2018-12-30T16:41:14.653Z,5.97
2018-12-30T16:43:40.984Z,6.60
2018-12-30T16:46:07.246Z,6.80
2018-12-30T16:48:33.539Z,6.95
2018-12-30T16:50:59.820Z,7.30
2018-12-30T16:53:26.100Z,6.65
2018-12-30T16:55:52.368Z,10.80
2018-12-30T16:58:18.625Z,7.80
2018-12-30T17:00:44.900Z,7.15
2018-12-30T17:03:11.155Z,7.70
2018-12-30T17:05:37.534Z,7.62
2018-12-30T17:08:03.775Z,7.90
2018-12-30T17:10:30.055Z,8.28
2018-12-30T17:12:56.333Z,7.60
2018-12-30T17:15:22.602Z,8.65
2018-12-30T17:17:48.853Z,9.45
2018-12-30T17:20:15.132Z,7.92
2018-12-30T17:22:41.380Z,9.10
2018-12-30T17:25:07.671Z,8.30
2018-12-30T17:27:33.924Z,7.80
2018-12-30T17:30:02.137Z,7.97
2018-12-30T17:32:28.265Z,8.03
2018-12-30T17:34:54.537Z,8.15
2018-12-30T17:37:20.923Z,7.45
2018-12-30T17:39:47.202Z,7.97
2018-12-30T17:42:13.436Z,7.90
2018-12-30T17:44:39.740Z,8.63
2018-12-30T17:47:06.031Z,9.35
2018-12-30T17:49:32.336Z,9.25
2018-12-30T17:51:58.574Z,8.48
2018-12-30T17:54:24.836Z,8.60
2018-12-30T17:56:51.141Z,8.75
2018-12-30T17:59:17.384Z,12.43
2018-12-30T18:01:43.875Z,12.15
2018-12-30T18:04:10.128Z,10.82
2018-12-30T18:06:36.533Z,10.60
2018-12-30T18:09:04.523Z,8.33
2018-12-30T18:11:30.778Z,9.00
2018-12-30T18:13:57.167Z,7.20
2018-12-30T18:16:23.535Z,9.08
2018-12-30T18:18:49.804Z,8.93
2018-12-30T18:21:16.108Z,8.45
2018-12-30T18:23:42.405Z,8.03
2018-12-30T18:26:08.788Z,9.85
2018-12-30T18:28:35.606Z,9.03
2018-12-30T18:31:01.885Z,9.20
2018-12-30T18:33:28.496Z,10.70
2018-12-30T18:35:54.833Z,9.20
2018-12-30T18:38:21.439Z,9.00
2018-12-30T18:40:48.122Z,8.85
2018-12-30T18:43:14.546Z,9.50
2018-12-30T18:45:40.828Z,9.78
2018-12-30T18:48:07.344Z,9.73
2018-12-30T18:50:33.836Z,9.00
2018-12-30T18:53:00.583Z,8.40
2018-12-30T18:55:27.013Z,9.13
2018-12-30T18:57:53.405Z,9.90
2018-12-30T19:00:19.820Z,8.70
2018-12-30T19:02:46.127Z,8.98
2018-12-30T19:05:12.665Z,8.45
2018-12-30T19:07:39.096Z,8.70
2018-12-30T19:10:06.274Z,9.23
2018-12-30T19:12:32.629Z,9.00
2018-12-30T19:14:59.031Z,11.28
2018-12-30T19:17:25.497Z,8.60
2018-12-30T19:19:51.786Z,10.60
2018-12-30T19:22:18.331Z,9.83
2018-12-30T19:24:44.889Z,9.93
2018-12-30T19:27:11.567Z,10.10
2018-12-30T19:29:38.255Z,11.40
2018-12-30T19:32:04.641Z,11.57
2018-12-30T19:34:31.044Z,11.50
2018-12-30T19:36:57.462Z,12.45
2018-12-30T19:39:23.732Z,10.68
2018-12-30T19:41:50.494Z,10.20
2018-12-30T19:44:16.806Z,8.98
2018-12-30T19:46:43.256Z,10.88
2018-12-30T19:49:09.729Z,11.18
2018-12-30T19:51:36.365Z,10.25
2018-12-30T19:54:02.846Z,10.60
2018-12-30T19:56:29.937Z,9.75
2018-12-30T19:58:56.221Z,10.50
2018-12-30T20:01:22.779Z,10.20
2018-12-30T20:03:49.047Z,11.10
2018-12-30T20:06:15.535Z,11.85
2018-12-30T20:08:42.028Z,12.45
2018-12-30T20:11:08.544Z,12.18
2018-12-30T20:13:34.913Z,13.10
2018-12-30T20:16:01.201Z,14.55
2018-12-30T20:18:30.445Z,11.22
2018-12-30T20:20:58.843Z,11.00
2018-12-30T20:23:25.089Z,11.40
2018-12-30T20:25:52.632Z,10.80
2018-12-30T20:28:18.991Z,10.63
2018-12-30T20:30:45.396Z,10.40
2018-12-30T20:33:11.790Z,10.15
2018-12-30T20:35:38.084Z,9.98
2018-12-30T20:38:04.449Z,12.28
2018-12-30T20:40:30.764Z,11.20
2018-12-30T20:42:57.173Z,12.30
2018-12-30T20:45:23.560Z,14.85
2018-12-30T20:47:50.139Z,22.32
2018-12-30T20:50:16.525Z,14.75
2018-12-30T20:52:42.812Z,14.40
2018-12-30T20:55:09.332Z,16.52
2018-12-30T20:57:35.675Z,15.55
2018-12-30T21:00:03.145Z,17.45
2018-12-30T21:02:29.569Z,13.00
2018-12-30T21:04:55.927Z,11.20
2018-12-30T21:07:22.448Z,11.50
2018-12-30T21:09:48.817Z,21.75
2018-12-30T21:12:15.108Z,13.78
2018-12-30T21:14:41.352Z,11.20
2018-12-30T21:17:07.774Z,11.65
2018-12-30T21:19:34.035Z,11.05
2018-12-30T21:22:00.490Z,10.53
2018-12-30T21:24:26.982Z,11.38
2018-12-30T21:26:53.323Z,10.55
2018-12-30T21:29:19.608Z,10.95
2018-12-30T21:31:45.886Z,11.75
2018-12-30T21:34:12.189Z,10.78
2018-12-30T21:36:38.467Z,11.20
2018-12-30T21:39:05.951Z,13.00
2018-12-30T21:41:32.237Z,12.00
2018-12-30T21:43:58.547Z,12.33
2018-12-30T21:46:24.825Z,11.08
2018-12-30T21:48:51.118Z,13.53
2018-12-30T21:51:17.596Z,11.90
2018-12-30T21:53:44.013Z,11.00
2018-12-30T21:56:10.306Z,11.80
2018-12-30T21:58:36.688Z,11.90
2018-12-30T22:01:03.088Z,12.03
2018-12-30T22:03:29.354Z,11.12
2018-12-30T22:05:55.848Z,12.90
2018-12-30T22:08:22.215Z,12.40
2018-12-30T22:10:48.492Z,13.00
2018-12-30T22:13:14.808Z,13.55
2018-12-30T22:15:41.100Z,11.65
2018-12-30T22:18:07.368Z,12.47
2018-12-30T22:20:33.769Z,11.73
2018-12-30T22:23:00.152Z,13.15
2018-12-30T22:25:26.433Z,12.60
2018-12-30T22:27:52.938Z,11.97
2018-12-30T22:30:19.205Z,12.60
2018-12-30T22:32:45.493Z,12.63
2018-12-30T22:35:11.881Z,11.85
2018-12-30T22:37:38.252Z,13.78
2018-12-30T22:40:06.345Z,12.85
2018-12-30T22:42:33.202Z,12.58
2018-12-30T22:44:59.733Z,12.55
2018-12-30T22:47:26.079Z,13.65
2018-12-30T22:49:52.740Z,14.50
2018-12-30T22:52:18.984Z,13.62
2018-12-30T22:54:45.294Z,12.65
2018-12-30T22:57:11.548Z,13.20
2018-12-30T22:59:37.843Z,13.60
2018-12-30T23:02:04.326Z,12.63
2018-12-30T23:04:30.624Z,13.60
2018-12-30T23:06:57.036Z,12.23
2018-12-30T23:09:23.407Z,14.10
2018-12-30T23:11:49.757Z,13.20
2018-12-30T23:14:16.162Z,13.22
2018-12-30T23:16:42.461Z,13.65
2018-12-30T23:19:08.833Z,11.90
2018-12-30T23:21:35.247Z,13.15
2018-12-30T23:24:01.681Z,12.85
2018-12-30T23:26:28.017Z,13.13
2018-12-30T23:28:54.402Z,13.62
2018-12-30T23:31:20.701Z,12.65
2018-12-30T23:33:47.099Z,12.70
2018-12-30T23:36:13.385Z,13.58
2018-12-30T23:38:39.678Z,14.15
2018-12-30T23:41:06.047Z,14.55
2018-12-30T23:43:32.479Z,13.88
2018-12-30T23:45:58.848Z,13.13
2018-12-30T23:48:25.127Z,13.72
2018-12-30T23:50:51.405Z,14.55
2018-12-30T23:53:17.681Z,13.60
2018-12-30T23:55:44.097Z,13.48
2018-12-30T23:58:10.369Z,13.78
